Time;durP1;ratioP1;P1;durP2;ratioP2;P2;SDS_P1;SDS_P2;PMS_P1;PMS_P2;Temp;Humidity;BMP_temperature;BMP_pressure;BME280_temperature;BME280_humidity;BME280_pressure;Samples;Min_cycle;Max_cycle;Signal;HPM_P1;HPM_P2
2023/10/21 00:02:04;;;;;;;0.63;0.20;;;12.10;99.90;;;;;;5024501;28;20089;-83
2023/10/21 00:04:31;;;;;;;0.38;0.20;;;;;;;;;;5033837;28;20113;-84
2023/10/21 00:06:57;;;;;;;0.40;0.20;;;;;;;;;;5024707;28;20095;-83
2023/10/21 00:09:23;;;;;;;0.28;0.13;;;;;;;;;;5034664;28;20089;-85
2023/10/21 00:11:49;;;;;;;0.93;0.30;;;;;;;;;;5033123;28;20029;-82
2023/10/21 00:14:15;;;;;;;0.65;0.20;;;;;;;;;;5024236;28;20060;-86
2023/10/21 00:16:40;;;;;;;5.10;0.30;;;12.00;99.90;;;;;;5023854;28;20487;-83
2023/10/21 00:19:06;;;;;;;0.77;0.13;;;;;;;;;;5024603;28;20030;-83
2023/10/21 00:21:32;;;;;;;2.22;0.20;;;;;;;;;;5025169;28;20454;-83
2023/10/21 00:23:58;;;;;;;0.63;0.13;;;;;;;;;;5021805;28;20041;-85
2023/10/21 00:26:25;;;;;;;1.65;0.20;;;;;;;;;;5023519;28;20033;-83
2023/10/21 00:28:51;;;;;;;1.60;0.20;;;;;;;;;;5018320;28;20033;-84
2023/10/21 00:31:17;;;;;;;0.70;0.25;;;;;;;;;;5022920;28;20033;-85
2023/10/21 00:33:42;;;;;;;0.35;0.10;;;;;;;;;;5035688;28;20029;-85
2023/10/21 00:36:08;;;;;;;3.28;0.20;;;;;;;;;;5023368;28;20045;-82
2023/10/21 00:38:34;;;;;;;0.20;0.10;;;;;;;;;;5021161;28;20038;-83
2023/10/21 00:41:00;;;;;;;0.22;0.13;;;;;;;;;;5027015;28;20037;-86
2023/10/21 00:43:32;;;;;;;0.40;0.20;;;;;;;;;;5020141;28;20068;-84
2023/10/21 00:45:59;;;;;;;0.30;0.10;;;;;;;;;;5012500;28;20030;-82
2023/10/21 00:48:25;;;;;;;0.40;0.10;;;;;;;;;;5022716;28;20026;-84
2023/10/21 00:50:51;;;;;;;0.65;0.20;;;;;;;;;;5029679;28;20044;-85
2023/10/21 00:53:17;;;;;;;0.47;0.20;;;;;;;;;;5027848;28;20049;-85
2023/10/21 00:55:43;;;;;;;0.25;0.10;;;;;;;;;;5030047;28;20017;-85
2023/10/21 00:58:09;;;;;;;0.20;0.20;;;;;;;;;;5042380;28;20574;-85
2023/10/21 01:00:35;;;;;;;0.52;0.17;;;;;;;;;;5034874;28;20055;-86
2023/10/21 01:03:01;;;;;;;1.75;0.20;;;;;;;;;;5030561;28;20026;-85
2023/10/21 01:05:27;;;;;;;0.52;0.30;;;;;;;;;;5033694;28;20067;-86
2023/10/21 01:07:58;;;;;;;0.20;0.20;;;;;;;;;;5024461;28;20383;-87
2023/10/21 01:10:25;;;;;;;1.13;0.40;;;;;;;;;;5022628;28;20111;-83
2023/10/21 01:12:51;;;;;;;0.20;0.10;;;;;;;;;;5019519;28;20088;-84
2023/10/21 01:15:17;;;;;;;0.30;0.10;;;;;;;;;;5028199;28;20435;-84
2023/10/21 01:17:51;;;;;;;2.80;0.10;;;12.70;99.90;;;;;;5024008;28;20125;-83
2023/10/21 01:20:18;;;;;;;0.75;0.20;;;;;;;;;;5011546;28;20034;-87
2023/10/21 01:22:44;;;;;;;0.20;0.10;;;;;;;;;;5019106;28;20079;-85
2023/10/21 01:25:09;;;;;;;0.10;0.10;;;13.10;99.90;;;;;;5021650;28;20048;-83
2023/10/21 01:27:36;;;;;;;0.30;0.20;;;;;;;;;;5024683;28;20034;-84
2023/10/21 01:30:05;;;;;;;0.00;0.00;;;;;;;;;;5024783;28;20053;-84
2023/10/21 01:32:31;;;;;;;0.10;0.03;;;;;;;;;;5025195;28;20083;-85
2023/10/21 01:34:57;;;;;;;0.00;0.00;;;;;;;;;;5021954;28;20022;-83
2023/10/21 01:37:23;;;;;;;1.13;0.10;;;;;;;;;;5028482;28;20053;-85
2023/10/21 01:39:49;;;;;;;0.17;0.05;;;;;;;;;;5025492;28;20022;-84
2023/10/21 01:42:15;;;;;;;0.00;0.00;;;;;;;;;;5023705;28;20030;-83
2023/10/21 01:44:41;;;;;;;0.17;0.00;;;;;;;;;;5024112;28;20040;-84
2023/10/21 01:47:07;;;;;;;0.00;0.00;;;;;;;;;;5026044;28;20028;-85
2023/10/21 01:49:33;;;;;;;1.10;1.00;;;;;;;;;;5025106;28;20030;-85
2023/10/21 01:51:59;;;;;;;0.10;0.05;;;;;;;;;;5018708;28;20072;-85
2023/10/21 01:54:25;;;;;;;0.00;0.00;;;;;;;;;;5024505;28;20026;-84
2023/10/21 01:56:52;;;;;;;0.00;0.00;;;;;;;;;;5020993;28;20026;-84
2023/10/21 01:59:18;;;;;;;0.00;0.00;;;;;;;;;;5018958;28;20029;-85
2023/10/21 02:01:44;;;;;;;0.25;0.00;;;;;;;;;;5021655;28;20125;-86
2023/10/21 02:04:11;;;;;;;0.22;0.00;;;;;;;;;;5025810;28;20560;-83
2023/10/21 02:06:37;;;;;;;0.13;0.10;;;;;;;;;;5014342;28;20375;-84
2023/10/21 02:09:03;;;;;;;0.00;0.00;;;;;;;;;;5011053;28;20300;-83
2023/10/21 02:11:29;;;;;;;0.10;0.00;;;;;;;;;;5025029;28;20249;-82
2023/10/21 02:13:55;;;;;;;0.05;0.00;;;;;;;;;;5014992;28;20033;-84
2023/10/21 02:16:22;;;;;;;0.17;0.05;;;;;;;;;;5019527;28;20364;-86
2023/10/21 02:18:48;;;;;;;0.05;0.00;;;;;;;;;;5020056;28;20587;-83
2023/10/21 02:21:14;;;;;;;0.20;0.10;;;;;;;;;;5022973;28;20103;-86
2023/10/21 02:23:40;;;;;;;0.60;0.10;;;;;;;;;;5017949;28;20124;-85
2023/10/21 02:26:07;;;;;;;0.10;0.10;;;;;;;;;;5016246;28;20032;-82
2023/10/21 02:28:33;;;;;;;2.63;0.20;;;;;;;;;;5028143;28;20022;-84
2023/10/21 02:31:04;;;;;;;0.22;0.10;;;13.60;99.90;;;;;;5019695;28;20423;-84
2023/10/21 02:33:30;;;;;;;1.75;0.00;;;;;;;;;;5021397;28;20116;-85
2023/10/21 02:35:56;;;;;;;0.20;0.10;;;;;;;;;;5025218;28;20682;-83
2023/10/21 02:38:23;;;;;;;0.00;0.00;;;;;;;;;;5021402;28;20028;-84
2023/10/21 02:40:49;;;;;;;0.45;0.10;;;;;;;;;;5024172;28;20075;-85
2023/10/21 02:43:15;;;;;;;0.00;0.00;;;;;;;;;;5018505;28;20096;-83
2023/10/21 02:45:41;;;;;;;0.00;0.00;;;;;;;;;;5019649;28;20541;-83
2023/10/21 02:48:07;;;;;;;0.00;0.00;;;;;;;;;;5020243;28;20029;-82
2023/10/21 02:50:33;;;;;;;0.90;0.10;;;;;;;;;;5017605;28;20029;-82
2023/10/21 02:52:59;;;;;;;0.00;0.00;;;;;;;;;;5011824;28;20037;-85
2023/10/21 02:55:27;;;;;;;0.10;0.03;;;14.20;99.90;;;;;;5020968;28;20030;-83
2023/10/21 02:57:53;;;;;;;0.22;0.08;;;;;;;;;;5014910;28;20036;-83
2023/10/21 03:00:21;;;;;;;0.05;0.05;;;;;;;;;;5013778;28;20029;-86
2023/10/21 03:02:48;;;;;;;0.30;0.08;;;;;;;;;;5023548;28;20547;-83
2023/10/21 03:05:14;;;;;;;0.08;0.00;;;;;;;;;;5022070;28;20033;-85
2023/10/21 03:07:40;;;;;;;0.00;0.00;;;;;;;;;;5020585;28;20049;-84
2023/10/21 03:10:06;;;;;;;0.03;0.00;;;;;;;;;;5020229;28;20136;-81
2023/10/21 03:12:32;;;;;;;0.85;0.10;;;;;;;;;;5017433;28;20381;-85
2023/10/21 03:15:00;;;;;;;0.10;0.00;;;;;;;;;;5019595;28;20026;-82
2023/10/21 03:17:26;;;;;;;0.22;0.08;;;14.10;99.90;;;;;;5017963;28;20045;-81
2023/10/21 03:19:55;;;;;;;0.00;0.00;;;;;;;;;;5023836;28;20033;-84
2023/10/21 03:22:21;;;;;;;0.10;0.10;;;;;;;;;;5021752;28;20660;-84
2023/10/21 03:24:47;;;;;;;0.10;0.00;;;;;;;;;;5011354;28;20026;-84
2023/10/21 03:27:13;;;;;;;0.10;0.00;;;;;;;;;;5022954;28;20491;-82
2023/10/21 03:29:40;;;;;;;0.17;0.00;;;13.90;99.90;;;;;;5016355;28;20103;-82
2023/10/21 03:32:06;;;;;;;0.43;0.08;;;;;;;;;;5019029;28;20108;-82
2023/10/21 03:34:33;;;;;;;0.55;0.00;;;;;;;;;;5022106;28;20033;-82
2023/10/21 03:36:59;;;;;;;0.00;0.00;;;;;;;;;;5022603;28;20036;-82
2023/10/21 03:39:26;;;;;;;0.10;0.10;;;;;;;;;;5013438;28;20037;-82
2023/10/21 03:41:52;;;;;;;0.00;0.00;;;13.40;99.90;;;;;;5019402;28;20030;-83
2023/10/21 03:44:18;;;;;;;1.65;0.10;;;13.10;99.90;;;;;;5013430;28;20026;-82
2023/10/21 03:46:44;;;;;;;0.00;0.00;;;13.10;99.90;;;;;;5015332;28;20592;-82
2023/10/21 03:49:10;;;;;;;3.10;0.10;;;;;;;;;;5024495;28;20098;-83
2023/10/21 03:51:36;;;;;;;0.00;0.00;;;;;;;;;;5023026;28;20049;-84
2023/10/21 03:54:02;;;;;;;0.00;0.00;;;;;;;;;;5022315;28;20033;-83
2023/10/21 03:56:28;;;;;;;0.00;0.00;;;;;;;;;;5017566;28;20052;-84
2023/10/21 03:58:54;;;;;;;0.00;0.00;;;;;;;;;;5023869;28;20143;-85
2023/10/21 04:01:22;;;;;;;0.22;0.05;;;12.60;99.90;;;;;;5003014;28;20671;-82
2023/10/21 04:03:48;;;;;;;0.30;0.00;;;;;;;;;;5002996;28;20063;-83
2023/10/21 04:06:16;;;;;;;0.00;0.00;;;;;;;;;;5023869;28;20025;-81
2023/10/21 04:08:42;;;;;;;0.10;0.00;;;;;;;;;;5013311;28;20148;-86
2023/10/21 04:11:08;;;;;;;0.10;0.00;;;;;;;;;;5020943;28;20021;-83
2023/10/21 04:13:34;;;;;;;0.03;0.00;;;;;;;;;;5030826;28;20029;-85
2023/10/21 04:16:00;;;;;;;0.00;0.00;;;;;;;;;;5022594;28;20400;-84
2023/10/21 04:18:27;;;;;;;0.00;0.00;;;;;;;;;;5024786;28;20029;-84
2023/10/21 04:20:53;;;;;;;0.20;0.10;;;;;;;;;;5013267;28;20041;-83
2023/10/21 04:23:19;;;;;;;0.55;0.10;;;;;;;;;;5022010;28;20045;-85
2023/10/21 04:25:44;;;;;;;0.15;0.00;;;;;;;;;;5020641;28;20057;-83
2023/10/21 04:28:10;;;;;;;0.25;0.10;;;;;;;;;;5012995;28;20038;-84
2023/10/21 04:30:37;;;;;;;0.20;0.00;;;;;;;;;;5018161;28;20039;-85
2023/10/21 04:33:03;;;;;;;0.30;0.10;;;;;;;;;;5017451;28;20033;-85
2023/10/21 04:35:29;;;;;;;0.20;0.10;;;;;;;;;;5030204;28;20266;-85
2023/10/21 04:37:56;;;;;;;1.65;0.38;;;;;;;;;;5038424;28;20025;-84
2023/10/21 04:40:22;;;;;;;1.92;0.30;;;;;;;;;;5021139;28;20030;-84
2023/10/21 04:42:48;;;;;;;1.70;0.30;;;;;;;;;;5016493;28;20251;-85
2023/10/21 04:45:14;;;;;;;0.28;0.10;;;;;;;;;;5008767;28;20239;-85
2023/10/21 04:47:40;;;;;;;0.20;0.00;;;;;;;;;;5020947;28;20439;-86
2023/10/21 04:50:06;;;;;;;0.40;0.10;;;;;;;;;;5017552;28;20623;-85
2023/10/21 04:52:33;;;;;;;0.43;0.15;;;;;;;;;;5020051;28;20095;-85
2023/10/21 04:55:00;;;;;;;0.40;0.10;;;;;;;;;;5024436;28;20183;-84
2023/10/21 04:57:26;;;;;;;1.25;0.10;;;;;;;;;;5017978;28;20033;-86
2023/10/21 04:59:52;;;;;;;0.77;0.40;;;;;;;;;;5025635;28;20388;-85
2023/10/21 05:02:18;;;;;;;1.23;0.30;;;;;;;;;;5020027;28;20032;-84
2023/10/21 05:04:43;;;;;;;0.73;0.30;;;10.70;99.90;;;;;;5011820;28;20468;-84
2023/10/21 05:07:09;;;;;;;0.63;0.35;;;;;;;;;;5028559;28;20083;-85
2023/10/21 05:09:35;;;;;;;1.02;0.17;;;;;;;;;;5031308;28;20028;-86
2023/10/21 05:12:01;;;;;;;0.57;0.25;;;;;;;;;;5027355;28;20033;-85
2023/10/21 05:14:27;;;;;;;1.33;0.20;;;;;;;;;;5026382;28;20125;-85
2023/10/21 05:16:53;;;;;;;20.17;8.48;;;;;;;;;;5022460;28;20041;-84
2023/10/21 05:19:19;;;;;;;14.00;6.10;;;;;;;;;;5026425;28;20025;-84
2023/10/21 05:21:45;;;;;;;7.05;4.05;;;;;;;;;;5013724;28;20476;-85
2023/10/21 05:24:12;;;;;;;2.97;1.83;;;;;;;;;;5018928;28;21187;-85
2023/10/21 05:26:38;;;;;;;1.88;1.10;;;;;;;;;;5020841;28;20033;-86
2023/10/21 05:29:04;;;;;;;0.73;0.60;;;10.60;99.90;;;;;;5001057;28;20037;-82
2023/10/21 05:31:30;;;;;;;1.83;0.70;;;;;;;;;;5000998;28;20442;-84
2023/10/21 05:33:57;;;;;;;1.10;0.50;;;;;;;;;;5012740;28;20053;-84
2023/10/21 05:36:24;;;;;;;31.90;10.15;;;10.60;99.90;;;;;;4992134;28;20095;-85
2023/10/21 05:38:49;;;;;;;41.80;13.75;;;10.70;99.90;;;;;;5020145;28;20026;-83
2023/10/21 05:41:15;;;;;;;23.38;8.00;;;;;;;;;;5029168;28;20041;-86
2023/10/21 05:43:41;;;;;;;21.33;7.47;;;;;;;;;;5013476;28;20096;-83
2023/10/21 05:46:07;;;;;;;23.05;9.10;;;;;;;;;;5005327;28;20129;-82
2023/10/21 05:48:33;;;;;;;12.35;4.65;;;;;;;;;;5024846;28;20061;-83
2023/10/21 05:51:01;;;;;;;6.35;2.08;;;;;;;;;;5006902;28;20044;-84
2023/10/21 05:53:26;;;;;;;9.65;3.33;;;10.70;99.90;;;;;;5018613;28;20038;-84
2023/10/21 05:55:55;;;;;;;8.85;2.05;;;;;;;;;;5011112;28;20036;-85
2023/10/21 05:58:20;;;;;;;5.28;1.92;;;;;;;;;;5023234;28;20060;-83
2023/10/21 06:00:46;;;;;;;6.00;2.20;;;;;;;;;;5011909;28;20049;-85
2023/10/21 06:03:13;;;;;;;5.53;2.08;;;;;;;;;;5018778;28;20021;-84
2023/10/21 06:05:39;;;;;;;4.30;1.80;;;;;;;;;;4998184;28;20083;-84
2023/10/21 06:08:06;;;;;;;4.75;1.42;;;;;;;;;;5014637;28;20029;-83
2023/10/21 06:10:32;;;;;;;6.05;1.73;;;;;;;;;;5007141;28;20092;-85
2023/10/21 06:12:58;;;;;;;5.43;1.65;;;;;;;;;;5030625;28;20033;-84
2023/10/21 06:15:24;;;;;;;4.20;1.30;;;;;;;;;;5028065;28;20048;-85
2023/10/21 06:17:49;;;;;;;6.30;1.88;;;;;;;;;;5031029;28;20458;-85
2023/10/21 06:20:15;;;;;;;5.35;1.52;;;;;;;;;;5029968;28;20034;-85
2023/10/21 06:22:41;;;;;;;4.75;1.30;;;;;;;;;;5024654;28;20022;-84
2023/10/21 06:25:08;;;;;;;5.60;1.52;;;;;;;;;;5030688;28;20034;-83
2023/10/21 06:27:34;;;;;;;5.32;1.52;;;;;;;;;;5025079;28;20342;-85
2023/10/21 06:30:00;;;;;;;3.53;1.67;;;;;;;;;;5024809;28;20224;-84
2023/10/21 06:32:26;;;;;;;4.47;1.73;;;;;;;;;;5019756;28;20029;-85
2023/10/21 06:34:52;;;;;;;2.65;1.17;;;;;;;;;;5012491;28;20753;-85
2023/10/21 06:37:18;;;;;;;6.80;1.17;;;;;;;;;;5001504;28;21169;-86
2023/10/21 06:39:44;;;;;;;2.90;1.10;;;;;;;;;;5014112;28;20099;-87
2023/10/21 06:42:11;;;;;;;6.07;2.00;;;;;;;;;;5029146;28;20036;-88
2023/10/21 06:44:37;;;;;;;2.08;0.90;;;;;;;;;;5024431;28;20030;-85
2023/10/21 06:47:03;;;;;;;2.05;0.82;;;;;;;;;;5023588;28;20045;-85
2023/10/21 06:49:29;;;;;;;2.75;0.82;;;;;;;;;;5003909;28;20095;-85
2023/10/21 06:51:55;;;;;;;4.15;1.10;;;;;;;;;;5024446;28;20053;-85
2023/10/21 06:54:21;;;;;;;5.63;2.25;;;;;;;;;;5015154;28;20049;-86
2023/10/21 06:56:47;;;;;;;6.28;1.73;;;;;;;;;;5014527;28;20037;-88
2023/10/21 06:59:13;;;;;;;4.22;1.20;;;;;;;;;;5025674;28;20033;-86
2023/10/21 07:01:40;;;;;;;2.78;0.90;;;;;;;;;;5015083;28;20071;-87
2023/10/21 07:04:06;;;;;;;1.13;0.57;;;;;;;;;;5021180;28;20045;-86
2023/10/21 07:06:32;;;;;;;2.20;0.88;;;;;;;;;;5022782;28;20032;-86
2023/10/21 07:08:58;;;;;;;4.22;1.10;;;;;;;;;;5007744;28;20037;-84
2023/10/21 07:11:24;;;;;;;15.10;5.90;;;;;;;;;;5010211;28;20030;-85
2023/10/21 07:13:50;;;;;;;27.65;9.23;;;;;;;;;;5011880;28;20033;-85
2023/10/21 07:16:16;;;;;;;20.20;8.30;;;;;;;;;;5010914;28;20511;-85
2023/10/21 07:18:42;;;;;;;29.80;10.90;;;;;;;;;;5000300;28;20103;-86
2023/10/21 07:21:09;;;;;;;29.20;11.13;;;;;;;;;;5029115;28;20044;-87
2023/10/21 07:23:37;;;;;;;32.28;11.95;;;;;;;;;;5013002;28;20033;-87
2023/10/21 07:26:03;;;;;;;27.27;12.70;;;;;;;;;;5014071;28;20068;-86
2023/10/21 07:28:30;;;;;;;36.70;13.80;;;11.10;99.90;;;;;;5015189;28;20037;-86
2023/10/21 07:30:56;;;;;;;29.70;13.00;;;;;;;;;;5017514;28;20079;-85
2023/10/21 07:33:22;;;;;;;29.35;11.90;;;;;;;;;;5016738;28;20044;-83
2023/10/21 07:35:50;;;;;;;23.92;9.73;;;;;;;;;;4993630;28;20037;-85
2023/10/21 07:38:16;;;;;;;15.70;6.60;;;;;;;;;;4998126;28;20038;-83
2023/10/21 07:40:43;;;;;;;6.30;1.50;;;;;;;;;;5026062;28;20033;-84
2023/10/21 07:43:09;;;;;;;7.65;3.17;;;;;;;;;;4997073;28;20068;-87
2023/10/21 07:45:35;;;;;;;8.52;2.50;;;;;;;;;;5000347;28;20029;-84
2023/10/21 07:48:02;;;;;;;2.33;0.57;;;;;;;;;;5001735;28;20042;-85
2023/10/21 07:50:28;;;;;;;0.38;0.10;;;;;;;;;;5009496;28;20045;-85
2023/10/21 07:52:54;;;;;;;1.67;0.45;;;13.20;99.90;;;;;;5014974;28;20090;-85
2023/10/21 07:55:20;;;;;;;0.20;0.10;;;;;;;;;;5005647;28;20592;-86
2023/10/21 07:57:46;;;;;;;1.05;0.30;;;;;;;;;;5001777;28;20408;-86
2023/10/21 08:00:13;;;;;;;1.52;0.20;;;;;;;;;;5010182;28;20580;-85
2023/10/21 08:02:40;;;;;;;0.55;0.20;;;15.00;99.90;;;;;;5001711;28;20018;-87
2023/10/21 08:05:07;;;;;;;1.13;0.13;;;15.40;99.90;;;;;;4998585;28;20124;-86
2023/10/21 08:07:33;;;;;;;0.13;0.10;;;;;;;;;;4996130;28;20468;-86
2023/10/21 08:09:59;;;;;;;1.00;0.10;;;;;;;;;;5022140;28;20268;-85
2023/10/21 08:12:25;;;;;;;1.30;0.10;;;;;;;;;;5021515;28;20124;-83
2023/10/21 08:14:51;;;;;;;0.30;0.10;;;;;;;;;;5023998;28;20029;-83
2023/10/21 08:17:17;;;;;;;0.00;0.00;;;;;;;;;;5026996;28;20113;-84
2023/10/21 08:19:43;;;;;;;0.68;0.20;;;;;;;;;;5027318;28;20030;-87
2023/10/21 08:22:10;;;;;;;0.00;0.00;;;;;;;;;;5029552;28;20025;-87
2023/10/21 08:24:36;;;;;;;0.77;0.20;;;;;;;;;;5037161;28;20049;-85
2023/10/21 08:27:04;;;;;;;2.30;0.10;;;;;;;;;;5034157;28;20086;-88
2023/10/21 08:29:30;;;;;;;1.17;0.73;;;;;;;;;;5037021;28;20030;-85
2023/10/21 08:31:56;;;;;;;0.25;0.20;;;;;;;;;;5009257;28;20037;-85
2023/10/21 08:34:22;;;;;;;0.00;0.00;;;;;;;;;;5025975;28;20032;-86
2023/10/21 08:36:49;;;;;;;1.10;0.22;;;;;;;;;;5029256;28;20035;-82
2023/10/21 08:39:15;;;;;;;0.25;0.00;;;;;;;;;;5038134;28;20048;-84
2023/10/21 08:41:41;;;;;;;0.35;0.20;;;;;;;;;;5028032;28;20032;-85
2023/10/21 08:44:08;;;;;;;0.15;0.00;;;23.50;99.90;;;;;;5026489;28;20048;-83
2023/10/21 08:46:34;;;;;;;0.15;0.10;;;;;;;;;;5027556;28;20040;-82
2023/10/21 08:49:04;;;;;;;0.20;0.00;;;;;;;;;;5024891;28;20030;-84
2023/10/21 08:51:32;;;;;;;0.75;0.10;;;19.60;99.90;;;;;;5022261;28;20428;-83
2023/10/21 08:54:03;;;;;;;0.80;0.30;;;19.00;99.90;;;;;;5023917;28;20022;-82
2023/10/21 08:56:30;;;;;;;0.25;0.25;;;18.00;99.90;;;;;;5035482;28;20045;-82
2023/10/21 08:58:56;;;;;;;0.32;0.10;;;;;;;;;;5032361;28;20115;-82
2023/10/21 09:01:23;;;;;;;0.95;0.10;;;17.50;99.90;;;;;;5022522;28;20033;-81
2023/10/21 09:03:49;;;;;;;0.20;0.15;;;;;;;;;;5029670;28;20026;-82
2023/10/21 09:06:17;;;;;;;0.32;0.00;;;;;;;;;;5027669;28;20119;-81
2023/10/21 09:08:44;;;;;;;0.10;0.00;;;;;;;;;;5026604;28;20037;-86
2023/10/21 09:11:13;;;;;;;0.38;0.10;;;;;;;;;;5006207;28;20080;-82
2023/10/21 09:13:40;;;;;;;0.43;0.17;;;17.00;99.90;;;;;;5010753;28;20047;-83
2023/10/21 09:16:22;;;;;;;0.30;0.10;;;;;;;;;;5022058;28;20029;-83
2023/10/21 09:19:04;;;;;;;0.70;0.05;;;16.50;99.90;;;;;;5029999;28;20435;-84
2023/10/21 09:21:41;;;;;;;0.35;0.00;;;17.10;99.90;;;;;;5032608;28;20037;-85
2023/10/21 09:24:11;;;;;;;0.10;0.10;;;17.10;99.90;;;;;;5019466;28;20044;-83
2023/10/21 09:26:40;;;;;;;1.00;0.10;;;17.20;99.90;;;;;;5032945;28;20014;-85
2023/10/21 09:29:07;;;;;;;1.25;0.17;;;17.40;99.90;;;;;;5036030;28;20025;-83
2023/10/21 09:31:46;;;;;;;0.00;0.00;;;16.90;99.90;;;;;;5028361;28;20033;-84
2023/10/21 09:34:30;;;;;;;0.13;0.10;;;17.40;99.90;;;;;;5030992;28;20625;-85
2023/10/21 09:36:57;;;;;;;0.28;0.10;;;17.20;99.90;;;;;;5031237;28;20033;-85
2023/10/21 09:39:25;;;;;;;1.15;0.10;;;16.90;99.90;;;;;;5033590;28;20103;-86
2023/10/21 09:41:52;;;;;;;0.10;0.00;;;;;;;;;;5038157;28;20053;-84
2023/10/21 09:44:18;;;;;;;0.68;0.28;;;16.70;99.90;;;;;;5027640;28;20036;-85
2023/10/21 09:46:45;;;;;;;0.40;0.10;;;16.70;99.90;;;;;;5021126;28;20032;-85
2023/10/21 09:49:15;;;;;;;0.25;0.10;;;16.30;99.90;;;;;;5020918;28;20085;-85
2023/10/21 09:51:52;;;;;;;0.30;0.10;;;16.50;99.90;;;;;;5029809;28;20030;-84
2023/10/21 09:54:26;;;;;;;1.95;0.30;;;16.50;99.90;;;;;;5030606;28;20021;-85
2023/10/21 09:56:54;;;;;;;0.30;0.10;;;16.50;99.90;;;;;;5034922;28;20611;-85
2023/10/21 09:59:21;;;;;;;1.55;0.30;;;16.20;99.90;;;;;;5025602;28;20017;-84
2023/10/21 10:01:48;;;;;;;1.67;0.60;;;16.20;99.90;;;;;;5023586;28;20033;-85
2023/10/21 10:04:14;;;;;;;0.52;0.30;;;;;;;;;;5028180;28;20033;-85
2023/10/21 10:06:40;;;;;;;2.55;0.20;;;;;;;;;;5019771;28;20392;-83
2023/10/21 10:09:07;;;;;;;0.40;0.10;;;;;;;;;;5020924;28;20033;-83
2023/10/21 10:11:36;;;;;;;0.60;0.10;;;16.00;99.90;;;;;;5037400;28;20254;-84
2023/10/21 10:14:02;;;;;;;1.13;0.10;;;16.20;99.90;;;;;;4997538;28;20029;-82
2023/10/21 10:16:29;;;;;;;0.88;0.08;;;16.60;99.90;;;;;;5010483;28;20030;-84
2023/10/21 10:18:58;;;;;;;1.75;0.03;;;;;;;;;;5021922;28;20026;-83
2023/10/21 10:21:25;;;;;;;0.20;0.10;;;;;;;;;;5030023;28;20025;-83
2023/10/21 10:23:55;;;;;;;0.00;0.00;;;17.00;99.90;;;;;;5014058;28;20591;-84
2023/10/21 10:26:37;;;;;;;0.20;0.00;;;17.40;99.90;;;;;;5024676;28;20037;-80
2023/10/21 10:29:19;;;;;;;0.17;0.10;;;16.50;99.90;;;;;;5029999;28;21375;-83
2023/10/21 10:31:46;;;;;;;0.50;0.10;;;;;;;;;;5014575;28;20037;-85
2023/10/21 10:34:12;;;;;;;3.58;0.35;;;;;;;;;;5000669;28;21843;-85
2023/10/21 10:36:38;;;;;;;1.02;0.50;;;;;;;;;;5017169;28;20095;-87
2023/10/21 10:39:04;;;;;;;0.30;0.20;;;;;;;;;;5025176;28;20025;-86
2023/10/21 10:41:30;;;;;;;4.13;0.13;;;;;;;;;;5022298;28;20349;-84
2023/10/21 10:44:01;;;;;;;1.13;0.15;;;;;;;;;;5002908;28;21572;-84
2023/10/21 10:46:28;;;;;;;0.32;0.10;;;;;;;;;;4999890;28;21615;-84
2023/10/21 10:48:54;;;;;;;0.30;0.20;;;;;;;;;;4993811;28;20204;-83
2023/10/21 10:51:23;;;;;;;0.40;0.10;;;17.30;99.90;;;;;;5011630;28;20025;-84
2023/10/21 10:53:56;;;;;;;1.85;0.03;;;16.80;99.90;;;;;;5005122;28;20112;-83
2023/10/21 10:56:25;;;;;;;0.10;0.10;;;;;;;;;;4996190;28;20083;-85
2023/10/21 10:58:52;;;;;;;0.10;0.10;;;;;;;;;;5013497;28;20116;-85
2023/10/21 11:01:27;;;;;;;0.68;0.20;;;17.90;99.90;;;;;;5019468;28;20493;-85
2023/10/21 11:03:58;;;;;;;0.10;0.00;;;17.90;99.90;;;;;;5019649;28;20106;-84
2023/10/21 11:06:28;;;;;;;0.95;0.30;;;17.80;99.90;;;;;;5012247;28;20045;-84
2023/10/21 11:08:54;;;;;;;0.60;0.20;;;17.40;99.90;;;;;;5013450;28;20944;-83
2023/10/21 11:11:22;;;;;;;0.22;0.10;;;;;;;;;;5020707;28;20093;-85
2023/10/21 11:13:48;;;;;;;0.47;0.30;;;;;;;;;;5024621;28;20112;-85
2023/10/21 11:16:15;;;;;;;2.03;0.75;;;;;;;;;;5025728;28;20056;-85
2023/10/21 11:18:42;;;;;;;1.10;0.57;;;;;;;;;;5007190;28;20565;-83
2023/10/21 11:21:08;;;;;;;0.30;0.20;;;;;;;;;;5009419;28;20057;-84
2023/10/21 11:23:35;;;;;;;0.00;0.00;;;18.80;99.90;;;;;;5002229;28;20120;-87
2023/10/21 11:26:02;;;;;;;1.33;0.20;;;18.50;99.90;;;;;;5003903;28;20025;-84
2023/10/21 11:28:29;;;;;;;1.90;0.17;;;18.60;99.90;;;;;;5002582;28;20028;-84
2023/10/21 11:30:57;;;;;;;0.32;0.10;;;19.70;99.90;;;;;;5022714;28;20045;-85
2023/10/21 11:33:23;;;;;;;2.13;0.10;;;;;;;;;;5013580;28;20198;-87
2023/10/21 11:35:51;;;;;;;2.05;0.10;;;19.50;99.90;;;;;;5003484;28;20240;-86
2023/10/21 11:38:17;;;;;;;0.30;0.00;;;;;;;;;;5029328;28;21377;-85
2023/10/21 11:40:44;;;;;;;0.08;0.03;;;18.60;99.90;;;;;;5012091;28;20083;-83
2023/10/21 11:43:19;;;;;;;1.25;0.13;;;19.10;99.90;;;;;;5009155;28;20273;-84
2023/10/21 11:45:49;;;;;;;0.10;0.08;;;;;;;;;;5024181;28;20026;-83
2023/10/21 11:48:16;;;;;;;3.00;0.10;;;19.10;99.90;;;;;;5005233;28;20048;-84
2023/10/21 11:50:44;;;;;;;1.73;0.10;;;18.30;99.90;;;;;;5000734;28;20037;-84
2023/10/21 11:53:12;;;;;;;1.00;0.35;;;18.20;99.90;;;;;;4992096;28;20522;-86
2023/10/21 12:25:11;;;;;;;1.45;0.10;;;;;;;;;;5008032;28;20036;-86
2023/10/21 12:38:57;;;;;;;0.82;0.25;;;;;;;;;;4998398;28;20037;-86
2023/10/21 12:41:28;;;;;;;0.25;0.10;;;17.50;99.90;;;;;;5017142;28;20057;-86
2023/10/21 12:43:58;;;;;;;0.00;0.00;;;;;;;;;;5020583;28;20099;-85
2023/10/21 12:46:30;;;;;;;0.47;0.25;;;;;;;;;;5010309;28;20499;-85
2023/10/21 12:48:57;;;;;;;0.43;0.08;;;18.00;99.90;;;;;;5023836;28;20044;-84
2023/10/21 12:51:26;;;;;;;0.20;0.10;;;18.10;99.90;;;;;;5030664;28;20032;-86
2023/10/21 12:53:52;;;;;;;0.10;0.05;;;;;;;;;;5026626;28;20036;-86
2023/10/21 12:56:18;;;;;;;0.22;0.10;;;17.70;99.90;;;;;;5033054;28;20009;-87
2023/10/21 12:58:44;;;;;;;2.35;0.20;;;;;;;;;;5053595;28;20048;-86
2023/10/21 13:01:14;;;;;;;0.10;0.10;;;;;;;;;;5047571;28;20045;-87
2023/10/21 13:03:41;;;;;;;0.52;0.17;;;17.50;99.90;;;;;;5041593;28;20052;-87
2023/10/21 13:06:08;;;;;;;2.75;0.10;;;17.60;99.90;;;;;;5034623;28;20052;-88
2023/10/21 13:08:34;;;;;;;0.60;0.20;;;;;;;;;;5030210;28;20030;-86
2023/10/21 13:11:00;;;;;;;1.27;0.13;;;;;;;;;;5036606;28;20065;-87
2023/10/21 13:13:34;;;;;;;0.28;0.00;;;;;;;;;;5030771;28;20041;-85
2023/10/21 13:16:00;;;;;;;0.13;0.10;;;;;;;;;;5030064;28;20369;-86
2023/10/21 13:18:26;;;;;;;0.65;0.03;;;;;;;;;;5028894;28;20037;-85
2023/10/21 13:20:52;;;;;;;0.57;0.03;;;;;;;;;;5030276;28;20060;-85
2023/10/21 13:23:18;;;;;;;2.78;0.10;;;;;;;;;;5023928;28;20506;-85
2023/10/21 13:25:44;;;;;;;0.38;0.10;;;;;;;;;;5025097;28;20017;-85
2023/10/21 13:28:11;;;;;;;0.20;0.13;;;;;;;;;;5025083;28;20067;-85
2023/10/21 13:30:37;;;;;;;0.10;0.10;;;;;;;;;;5021781;28;20389;-85
2023/10/21 13:33:05;;;;;;;0.82;0.20;;;18.10;99.90;;;;;;5027403;28;20030;-85
2023/10/21 13:35:34;;;;;;;0.17;0.05;;;;;;;;;;5022717;28;21735;-86
2023/10/21 13:38:00;;;;;;;0.20;0.10;;;;;;;;;;5022920;28;20052;-86
2023/10/21 13:40:26;;;;;;;0.82;0.00;;;;;;;;;;5029005;28;20468;-86
2023/10/21 13:42:53;;;;;;;0.10;0.05;;;;;;;;;;5026852;28;20014;-85
2023/10/21 13:45:20;;;;;;;0.35;0.15;;;18.20;99.90;;;;;;5020866;28;20080;-87
2023/10/21 13:47:46;;;;;;;11.60;5.00;;;;;;;;;;5024992;28;20578;-86
2023/10/21 13:50:15;;;;;;;3.25;1.67;;;18.40;99.90;;;;;;5029689;28;20388;-85
2023/10/21 13:52:42;;;;;;;1.02;0.22;;;;;;;;;;5027006;28;20025;-85
2023/10/21 13:55:14;;;;;;;1.75;0.10;;;;;;;;;;5023247;28;20063;-84
2023/10/21 13:57:40;;;;;;;0.00;0.00;;;;;;;;;;5029626;28;20694;-85
2023/10/21 14:00:25;;;;;;;0.08;0.00;;;;;;;;;;5034347;28;20382;-85
2023/10/21 14:02:51;;;;;;;1.85;0.10;;;;;;;;;;5030553;28;20037;-86
2023/10/21 14:05:17;;;;;;;0.47;0.10;;;;;;;;;;5019225;28;20057;-86
2023/10/21 14:07:43;;;;;;;0.73;0.08;;;;;;;;;;5025331;28;20025;-87
2023/10/21 14:10:09;;;;;;;0.43;0.00;;;;;;;;;;5026165;28;20526;-87
2023/10/21 14:12:35;;;;;;;0.00;0.00;;;;;;;;;;5025203;28;20029;-85
2023/10/21 14:15:10;;;;;;;0.68;0.08;;;;;;;;;;5028507;28;20147;-85
2023/10/21 14:17:36;;;;;;;3.40;0.20;;;;;;;;;;5031210;28;20120;-86
2023/10/21 14:20:04;;;;;;;1.65;0.10;;;17.40;99.90;;;;;;5034325;28;20060;-84
2023/10/21 14:22:30;;;;;;;0.20;0.05;;;;;;;;;;5032005;28;20067;-84
2023/10/21 14:24:56;;;;;;;0.17;0.00;;;;;;;;;;5028970;28;20073;-84
2023/10/21 14:27:22;;;;;;;0.25;0.00;;;17.20;99.90;;;;;;5031351;28;20032;-84
2023/10/21 14:29:48;;;;;;;0.55;0.10;;;;;;;;;;5033535;28;20377;-86
2023/10/21 14:32:16;;;;;;;0.03;0.00;;;17.20;99.90;;;;;;5026655;28;20029;-85
2023/10/21 14:34:42;;;;;;;1.05;0.32;;;;;;;;;;5032072;28;20148;-85
2023/10/21 14:37:08;;;;;;;0.20;0.20;;;17.00;99.90;;;;;;5026601;28;20116;-85
2023/10/21 14:39:35;;;;;;;0.15;0.00;;;;;;;;;;5030015;28;20507;-86
2023/10/21 14:42:01;;;;;;;1.08;0.30;;;;;;;;;;5030836;28;20069;-85
2023/10/21 14:44:27;;;;;;;0.20;0.10;;;;;;;;;;5030586;28;20030;-85
2023/10/21 14:46:53;;;;;;;1.85;0.20;;;;;;;;;;5025549;28;20032;-85
2023/10/21 14:49:19;;;;;;;0.22;0.10;;;;;;;;;;5032652;28;20451;-85
2023/10/21 14:51:45;;;;;;;0.32;0.10;;;;;;;;;;5025762;28;20029;-85
2023/10/21 14:54:11;;;;;;;0.90;0.00;;;;;;;;;;5030585;28;20026;-84